TKJ6LF LTFE-LTAC
Flight info
| Callsign | TKJ6LF |
|---|---|
| Flight time | N/A |
| Altitude | 37000 |
| Route | KAVAK UW95 KUXIL UT58 KFK UT54 HALIL |
| Aircraft | B738/M-SDE2E3FGHIRWXY/LB1 |
Departure
| Time | 2026-05-07 21:07 |
|---|---|
| Airport | Milas Bodrum International Airport (LTFE) |
Arrival
| Time | N/A |
|---|---|
| Airport | Esenboğa International Airport (LTAC) |
| Time | Latitude | Longitude | Altitude | Speed | Heading |
|---|---|---|---|---|---|
| 2026-05-07 20:45 | 37.24501 | 27.67398 | 29 ft | 0 kts | 197° |
| 2026-05-07 20:59 | 37.24520 | 27.67406 | 2 ft | 4 kts | 195° |
| 2026-05-07 21:00 | 37.24546 | 27.67414 | 29 ft | 4 kts | 189° |
| 2026-05-07 21:00 | 37.24572 | 27.67418 | 29 ft | 3 kts | 186° |
| 2026-05-07 21:00 | 37.24579 | 27.67419 | 29 ft | 0 kts | 186° |
| 2026-05-07 21:03 | 37.24561 | 27.67426 | 29 ft | 6 kts | 142° |
| 2026-05-07 21:03 | 37.24542 | 27.67479 | 29 ft | 7 kts | 107° |
| 2026-05-07 21:03 | 37.24528 | 27.67536 | 29 ft | 7 kts | 106° |
| 2026-05-07 21:04 | 37.24514 | 27.67599 | 29 ft | 9 kts | 106° |
| 2026-05-07 21:04 | 37.24487 | 27.67712 | 29 ft | 16 kts | 106° |
| 2026-05-07 21:04 | 37.24454 | 27.67852 | 29 ft | 17 kts | 107° |
| 2026-05-07 21:04 | 37.24426 | 27.67968 | 29 ft | 10 kts | 107° |
| 2026-05-07 21:05 | 37.24447 | 27.68035 | 29 ft | 9 kts | 37° |
| 2026-05-07 21:05 | 37.24504 | 27.68062 | 29 ft | 9 kts | 15° |
| 2026-05-07 21:05 | 37.24562 | 27.68082 | 28 ft | 9 kts | 15° |
| 2026-05-07 21:05 | 37.24621 | 27.68105 | 28 ft | 10 kts | 18° |
| 2026-05-07 21:06 | 37.24690 | 27.68131 | 28 ft | 11 kts | 6° |
| 2026-05-07 21:06 | 37.24761 | 27.68010 | 30 ft | 31 kts | 287° |
| 2026-05-07 21:06 | 37.24893 | 27.67458 | 31 ft | 100 kts | 287° |
| 2026-05-07 21:06 | 37.25157 | 27.66372 | 31 ft | 157 kts | 289° |
| 2026-05-07 21:07 | 37.25524 | 27.64976 | 438 ft | 169 kts | 287° |
| 2026-05-07 21:07 | 37.25756 | 27.64042 | 956 ft | 168 kts | 287° |